Portada
METAR-TAF:

METAR-TAF

Aeropuertos :

Aeropuerto Internacional de Túnez-Cartago

Túnez, Túnez

latitud: 36-50N, longitud: 010-14E, altitud: 3 m

Observación

El informe se hizo hace 44 minutos, a las 09:00 UTC
Viento 9 kt del oeste-suroeste
Temperatura 17°C
Humedad 59%
Presión 1010 hPa
Visibilidad 10 km o más
Escasas nubes a una altura de 2300 ft

METAR: DTTA 140900Z 24009KT 9999 FEW023 17/09 Q1010

Hora: 10:44 (09:44 UTC)

Pronóstico

El informe se hizo hace 4 horas y 44 minutos, a las 05:00 UTC
Pronóstico válido del 14 a las 06 UTC al 15 a las 06 UTC
Viento 10 kt del oeste-suroeste
Visibilidad 10 km o más
Escasas nubes a una altura de 2300 ft
Evolucionando progresivamente
del 14 a las 10 UTC al 14 a las 12 UTC
Viento 5 kt del oeste-suroeste
Evolucionando progresivamente
del 14 a las 15 UTC al 14 a las 17 UTC
Viento 8 kt del sur

TAF: DTTA 140500Z 1406/1506 24010KT 9999 FEW023 BECMG 1410/1412 25005KT BECMG 1415/1417 17008KT

Observaciones y pronósticos meteorológicos de más de 4000 aeropuertos (mensajes METAR y TAF).

Los puntos amarillos y rojos representan las estaciones disponibles.

Ponga el ratón en el punto deseado para ver el nombre de la estación.

Haga clic para ver las observaciones y los pronósticos meteorológicos.

Para cambiar el mapa : haga clic en los botones verdes con una cruz de color negro para hacer un zoom, en el botón verde con un guión para alejar o en las flechas verdes para mapas adyacentes.


METAR-TAF: